sensor_id;sensor_type;location;lat;lon;timestamp;P1;durP1;ratioP1;P2;durP2;ratioP2
81960;SDS011;71462;50.650;6.888;2023-08-21T00:00:24;22.80;;;13.95;;
81960;SDS011;71462;50.650;6.888;2023-08-21T00:02:27;22.98;;;15.60;;
81960;SDS011;71462;50.650;6.888;2023-08-21T00:04:30;23.10;;;14.73;;
81960;SDS011;71462;50.650;6.888;2023-08-21T00:06:32;23.50;;;14.35;;
81960;SDS011;71462;50.650;6.888;2023-08-21T00:08:35;22.95;;;14.98;;
81960;SDS011;71462;50.650;6.888;2023-08-21T00:10:37;28.98;;;16.27;;
81960;SDS011;71462;50.650;6.888;2023-08-21T00:12:42;24.75;;;14.35;;
81960;SDS011;71462;50.650;6.888;2023-08-21T00:14:46;27.67;;;14.98;;
81960;SDS011;71462;50.650;6.888;2023-08-21T00:16:47;26.77;;;14.95;;
81960;SDS011;71462;50.650;6.888;2023-08-21T00:18:50;26.25;;;14.77;;
81960;SDS011;71462;50.650;6.888;2023-08-21T00:20:53;22.23;;;14.02;;
81960;SDS011;71462;50.650;6.888;2023-08-21T00:22:55;22.33;;;13.68;;
81960;SDS011;71462;50.650;6.888;2023-08-21T00:24:58;23.25;;;16.25;;
81960;SDS011;71462;50.650;6.888;2023-08-21T00:27:01;25.95;;;14.48;;
81960;SDS011;71462;50.650;6.888;2023-08-21T00:29:05;26.95;;;15.80;;
81960;SDS011;71462;50.650;6.888;2023-08-21T00:31:09;27.95;;;15.68;;
81960;SDS011;71462;50.650;6.888;2023-08-21T00:33:14;22.85;;;15.00;;
81960;SDS011;71462;50.650;6.888;2023-08-21T00:35:17;24.63;;;15.77;;
81960;SDS011;71462;50.650;6.888;2023-08-21T00:37:20;24.90;;;15.73;;
81960;SDS011;71462;50.650;6.888;2023-08-21T00:39:22;24.73;;;16.95;;
81960;SDS011;71462;50.650;6.888;2023-08-21T00:41:25;24.45;;;16.17;;
81960;SDS011;71462;50.650;6.888;2023-08-21T00:43:28;25.75;;;16.48;;
81960;SDS011;71462;50.650;6.888;2023-08-21T00:45:30;29.70;;;16.60;;
81960;SDS011;71462;50.650;6.888;2023-08-21T00:47:34;26.40;;;16.08;;
81960;SDS011;71462;50.650;6.888;2023-08-21T00:49:37;27.73;;;16.85;;
81960;SDS011;71462;50.650;6.888;2023-08-21T00:51:41;28.00;;;17.75;;
81960;SDS011;71462;50.650;6.888;2023-08-21T00:53:44;26.27;;;17.20;;
81960;SDS011;71462;50.650;6.888;2023-08-21T00:55:46;29.25;;;17.20;;
81960;SDS011;71462;50.650;6.888;2023-08-21T00:57:49;29.40;;;17.10;;
81960;SDS011;71462;50.650;6.888;2023-08-21T00:59:52;32.97;;;18.25;;
81960;SDS011;71462;50.650;6.888;2023-08-21T01:01:56;29.75;;;18.40;;
81960;SDS011;71462;50.650;6.888;2023-08-21T01:04:00;28.63;;;17.48;;
81960;SDS011;71462;50.650;6.888;2023-08-21T01:06:03;33.35;;;18.85;;
81960;SDS011;71462;50.650;6.888;2023-08-21T01:08:06;32.28;;;19.42;;
81960;SDS011;71462;50.650;6.888;2023-08-21T01:10:26;30.15;;;18.70;;
81960;SDS011;71462;50.650;6.888;2023-08-21T01:12:41;26.80;;;17.15;;
81960;SDS011;71462;50.650;6.888;2023-08-21T01:14:54;27.92;;;17.58;;
81960;SDS011;71462;50.650;6.888;2023-08-21T01:17:02;35.60;;;17.67;;
81960;SDS011;71462;50.650;6.888;2023-08-21T01:19:09;27.73;;;16.00;;
81960;SDS011;71462;50.650;6.888;2023-08-21T01:21:17;31.83;;;17.17;;
81960;SDS011;71462;50.650;6.888;2023-08-21T01:23:34;28.52;;;16.33;;
81960;SDS011;71462;50.650;6.888;2023-08-21T01:25:37;24.38;;;15.05;;
81960;SDS011;71462;50.650;6.888;2023-08-21T01:27:40;32.15;;;20.25;;
81960;SDS011;71462;50.650;6.888;2023-08-21T01:29:52;31.27;;;18.55;;
81960;SDS011;71462;50.650;6.888;2023-08-21T01:31:57;31.00;;;18.95;;
81960;SDS011;71462;50.650;6.888;2023-08-21T01:34:06;31.08;;;19.60;;
81960;SDS011;71462;50.650;6.888;2023-08-21T01:36:12;33.28;;;18.40;;
81960;SDS011;71462;50.650;6.888;2023-08-21T01:38:15;30.08;;;19.40;;
81960;SDS011;71462;50.650;6.888;2023-08-21T01:40:21;30.83;;;17.88;;
81960;SDS011;71462;50.650;6.888;2023-08-21T01:42:26;43.13;;;22.10;;
81960;SDS011;71462;50.650;6.888;2023-08-21T01:44:28;31.50;;;18.27;;
81960;SDS011;71462;50.650;6.888;2023-08-21T01:46:31;32.85;;;18.33;;
81960;SDS011;71462;50.650;6.888;2023-08-21T01:48:33;36.30;;;18.17;;
81960;SDS011;71462;50.650;6.888;2023-08-21T01:50:35;28.67;;;17.35;;
81960;SDS011;71462;50.650;6.888;2023-08-21T01:52:38;32.28;;;21.20;;
81960;SDS011;71462;50.650;6.888;2023-08-21T01:54:41;28.40;;;17.42;;
81960;SDS011;71462;50.650;6.888;2023-08-21T01:56:45;31.08;;;20.17;;
81960;SDS011;71462;50.650;6.888;2023-08-21T01:58:48;29.20;;;18.52;;
81960;SDS011;71462;50.650;6.888;2023-08-21T02:00:50;24.17;;;17.20;;
81960;SDS011;71462;50.650;6.888;2023-08-21T02:02:53;34.70;;;19.92;;
81960;SDS011;71462;50.650;6.888;2023-08-21T02:04:55;34.28;;;19.67;;
81960;SDS011;71462;50.650;6.888;2023-08-21T02:06:57;29.77;;;19.58;;
81960;SDS011;71462;50.650;6.888;2023-08-21T02:09:00;28.90;;;17.83;;
81960;SDS011;71462;50.650;6.888;2023-08-21T02:11:03;25.33;;;17.17;;
81960;SDS011;71462;50.650;6.888;2023-08-21T02:13:07;31.67;;;19.75;;
81960;SDS011;71462;50.650;6.888;2023-08-21T02:15:09;27.23;;;17.30;;
81960;SDS011;71462;50.650;6.888;2023-08-21T02:17:15;29.38;;;17.70;;
81960;SDS011;71462;50.650;6.888;2023-08-21T02:19:17;31.70;;;17.60;;
81960;SDS011;71462;50.650;6.888;2023-08-21T02:21:20;27.75;;;17.92;;
81960;SDS011;71462;50.650;6.888;2023-08-21T02:23:23;32.67;;;19.00;;
81960;SDS011;71462;50.650;6.888;2023-08-21T02:25:26;26.40;;;16.75;;
81960;SDS011;71462;50.650;6.888;2023-08-21T02:27:28;28.40;;;17.67;;
81960;SDS011;71462;50.650;6.888;2023-08-21T02:29:32;32.28;;;19.30;;
81960;SDS011;71462;50.650;6.888;2023-08-21T02:31:35;32.72;;;17.88;;
81960;SDS011;71462;50.650;6.888;2023-08-21T02:33:38;27.67;;;17.42;;
81960;SDS011;71462;50.650;6.888;2023-08-21T02:35:40;30.92;;;18.40;;
81960;SDS011;71462;50.650;6.888;2023-08-21T02:37:43;35.42;;;18.58;;
81960;SDS011;71462;50.650;6.888;2023-08-21T02:39:46;26.10;;;15.75;;
81960;SDS011;71462;50.650;6.888;2023-08-21T02:41:48;31.75;;;17.98;;
81960;SDS011;71462;50.650;6.888;2023-08-21T02:43:51;24.85;;;17.30;;
81960;SDS011;71462;50.650;6.888;2023-08-21T02:45:55;30.30;;;17.50;;
81960;SDS011;71462;50.650;6.888;2023-08-21T02:47:58;26.15;;;16.67;;
81960;SDS011;71462;50.650;6.888;2023-08-21T02:50:01;30.45;;;17.02;;
81960;SDS011;71462;50.650;6.888;2023-08-21T02:52:04;30.33;;;16.15;;
81960;SDS011;71462;50.650;6.888;2023-08-21T02:54:07;26.30;;;16.35;;
81960;SDS011;71462;50.650;6.888;2023-08-21T02:56:10;33.90;;;17.27;;
81960;SDS011;71462;50.650;6.888;2023-08-21T02:58:12;26.73;;;17.23;;
81960;SDS011;71462;50.650;6.888;2023-08-21T03:00:15;31.35;;;18.40;;
81960;SDS011;71462;50.650;6.888;2023-08-21T03:02:19;24.77;;;15.32;;
81960;SDS011;71462;50.650;6.888;2023-08-21T03:04:22;30.27;;;18.10;;
81960;SDS011;71462;50.650;6.888;2023-08-21T03:06:25;36.63;;;18.70;;
81960;SDS011;71462;50.650;6.888;2023-08-21T03:08:28;36.22;;;20.75;;
81960;SDS011;71462;50.650;6.888;2023-08-21T03:10:30;33.03;;;20.55;;
81960;SDS011;71462;50.650;6.888;2023-08-21T03:12:35;30.63;;;19.48;;
81960;SDS011;71462;50.650;6.888;2023-08-21T03:14:38;31.98;;;18.48;;
81960;SDS011;71462;50.650;6.888;2023-08-21T03:16:41;30.85;;;17.05;;
81960;SDS011;71462;50.650;6.888;2023-08-21T03:18:57;33.75;;;18.23;;
81960;SDS011;71462;50.650;6.888;2023-08-21T03:21:01;35.42;;;19.05;;
81960;SDS011;71462;50.650;6.888;2023-08-21T03:23:04;31.40;;;18.80;;
81960;SDS011;71462;50.650;6.888;2023-08-21T03:25:07;31.75;;;20.38;;
81960;SDS011;71462;50.650;6.888;2023-08-21T03:27:09;34.03;;;19.40;;
81960;SDS011;71462;50.650;6.888;2023-08-21T03:29:12;28.95;;;18.40;;
81960;SDS011;71462;50.650;6.888;2023-08-21T03:31:14;29.45;;;17.40;;
81960;SDS011;71462;50.650;6.888;2023-08-21T03:33:18;30.20;;;16.92;;
81960;SDS011;71462;50.650;6.888;2023-08-21T03:35:22;36.42;;;18.70;;
81960;SDS011;71462;50.650;6.888;2023-08-21T03:37:25;31.60;;;17.95;;
81960;SDS011;71462;50.650;6.888;2023-08-21T03:39:28;29.35;;;17.83;;
81960;SDS011;71462;50.650;6.888;2023-08-21T03:41:31;32.97;;;17.80;;
81960;SDS011;71462;50.650;6.888;2023-08-21T03:43:33;32.00;;;18.83;;
81960;SDS011;71462;50.650;6.888;2023-08-21T03:45:36;35.85;;;20.20;;
81960;SDS011;71462;50.650;6.888;2023-08-21T03:47:39;32.22;;;18.65;;
81960;SDS011;71462;50.650;6.888;2023-08-21T03:49:42;34.80;;;21.52;;
81960;SDS011;71462;50.650;6.888;2023-08-21T03:51:50;33.60;;;21.73;;
81960;SDS011;71462;50.650;6.888;2023-08-21T03:53:53;38.03;;;22.75;;
81960;SDS011;71462;50.650;6.888;2023-08-21T03:55:56;40.28;;;25.20;;
81960;SDS011;71462;50.650;6.888;2023-08-21T03:57:59;39.30;;;24.58;;
81960;SDS011;71462;50.650;6.888;2023-08-21T04:00:02;37.92;;;20.25;;
81960;SDS011;71462;50.650;6.888;2023-08-21T04:02:06;40.88;;;22.08;;
81960;SDS011;71462;50.650;6.888;2023-08-21T04:04:09;38.38;;;23.48;;
81960;SDS011;71462;50.650;6.888;2023-08-21T04:06:12;35.50;;;22.70;;
81960;SDS011;71462;50.650;6.888;2023-08-21T04:08:16;39.55;;;22.85;;
81960;SDS011;71462;50.650;6.888;2023-08-21T04:10:20;35.60;;;22.33;;
81960;SDS011;71462;50.650;6.888;2023-08-21T04:12:22;44.97;;;23.17;;
81960;SDS011;71462;50.650;6.888;2023-08-21T04:14:25;30.58;;;18.80;;
81960;SDS011;71462;50.650;6.888;2023-08-21T04:16:28;33.72;;;20.23;;
81960;SDS011;71462;50.650;6.888;2023-08-21T04:18:32;34.30;;;22.00;;
81960;SDS011;71462;50.650;6.888;2023-08-21T04:20:42;32.58;;;19.95;;
81960;SDS011;71462;50.650;6.888;2023-08-21T04:22:44;41.45;;;21.75;;
81960;SDS011;71462;50.650;6.888;2023-08-21T04:24:49;33.78;;;20.38;;
81960;SDS011;71462;50.650;6.888;2023-08-21T04:26:51;34.45;;;22.73;;
81960;SDS011;71462;50.650;6.888;2023-08-21T04:28:57;35.80;;;20.15;;
81960;SDS011;71462;50.650;6.888;2023-08-21T04:30:59;29.67;;;19.20;;
81960;SDS011;71462;50.650;6.888;2023-08-21T04:33:01;32.22;;;19.77;;
81960;SDS011;71462;50.650;6.888;2023-08-21T04:35:05;33.13;;;19.83;;
81960;SDS011;71462;50.650;6.888;2023-08-21T04:37:09;32.08;;;19.38;;
81960;SDS011;71462;50.650;6.888;2023-08-21T04:39:12;36.10;;;21.92;;
81960;SDS011;71462;50.650;6.888;2023-08-21T04:41:16;32.88;;;21.55;;
81960;SDS011;71462;50.650;6.888;2023-08-21T04:43:19;37.15;;;20.73;;
81960;SDS011;71462;50.650;6.888;2023-08-21T04:45:21;31.98;;;18.98;;
81960;SDS011;71462;50.650;6.888;2023-08-21T04:47:24;33.92;;;19.60;;
81960;SDS011;71462;50.650;6.888;2023-08-21T04:49:28;31.70;;;18.83;;
81960;SDS011;71462;50.650;6.888;2023-08-21T04:51:31;41.67;;;20.05;;
81960;SDS011;71462;50.650;6.888;2023-08-21T04:53:34;28.90;;;19.30;;
81960;SDS011;71462;50.650;6.888;2023-08-21T04:55:36;38.75;;;23.05;;
81960;SDS011;71462;50.650;6.888;2023-08-21T04:57:42;35.35;;;20.38;;
81960;SDS011;71462;50.650;6.888;2023-08-21T04:59:45;31.75;;;19.55;;
81960;SDS011;71462;50.650;6.888;2023-08-21T05:01:48;33.83;;;19.80;;
81960;SDS011;71462;50.650;6.888;2023-08-21T05:03:51;33.75;;;19.38;;
81960;SDS011;71462;50.650;6.888;2023-08-21T05:05:55;30.55;;;20.42;;
81960;SDS011;71462;50.650;6.888;2023-08-21T05:08:00;31.23;;;19.45;;
81960;SDS011;71462;50.650;6.888;2023-08-21T05:10:03;29.67;;;18.85;;
81960;SDS011;71462;50.650;6.888;2023-08-21T05:12:07;35.95;;;19.40;;
81960;SDS011;71462;50.650;6.888;2023-08-21T05:14:11;32.03;;;19.13;;
81960;SDS011;71462;50.650;6.888;2023-08-21T05:16:14;34.58;;;20.38;;
81960;SDS011;71462;50.650;6.888;2023-08-21T05:18:17;36.15;;;22.10;;
81960;SDS011;71462;50.650;6.888;2023-08-21T05:20:19;34.78;;;21.45;;
81960;SDS011;71462;50.650;6.888;2023-08-21T05:22:22;36.42;;;20.65;;
81960;SDS011;71462;50.650;6.888;2023-08-21T05:24:25;33.22;;;20.25;;
81960;SDS011;71462;50.650;6.888;2023-08-21T05:26:28;36.88;;;20.83;;
81960;SDS011;71462;50.650;6.888;2023-08-21T05:28:29;35.65;;;19.48;;
81960;SDS011;71462;50.650;6.888;2023-08-21T05:30:35;32.22;;;20.05;;
81960;SDS011;71462;50.650;6.888;2023-08-21T05:32:37;36.90;;;20.60;;
81960;SDS011;71462;50.650;6.888;2023-08-21T05:34:41;36.10;;;21.52;;
81960;SDS011;71462;50.650;6.888;2023-08-21T05:36:43;34.67;;;21.48;;
81960;SDS011;71462;50.650;6.888;2023-08-21T05:38:46;36.17;;;21.10;;
81960;SDS011;71462;50.650;6.888;2023-08-21T05:40:49;36.15;;;21.05;;
81960;SDS011;71462;50.650;6.888;2023-08-21T05:42:52;37.80;;;21.38;;
81960;SDS011;71462;50.650;6.888;2023-08-21T05:44:55;38.58;;;21.55;;
81960;SDS011;71462;50.650;6.888;2023-08-21T05:46:59;36.42;;;20.40;;
81960;SDS011;71462;50.650;6.888;2023-08-21T05:49:01;35.05;;;20.63;;
81960;SDS011;71462;50.650;6.888;2023-08-21T05:51:04;39.15;;;23.35;;
81960;SDS011;71462;50.650;6.888;2023-08-21T05:53:07;42.45;;;22.08;;
81960;SDS011;71462;50.650;6.888;2023-08-21T05:55:10;38.13;;;22.25;;
81960;SDS011;71462;50.650;6.888;2023-08-21T05:57:14;43.97;;;23.40;;
81960;SDS011;71462;50.650;6.888;2023-08-21T05:59:25;43.75;;;23.60;;
81960;SDS011;71462;50.650;6.888;2023-08-21T06:01:30;35.55;;;21.25;;
81960;SDS011;71462;50.650;6.888;2023-08-21T06:03:34;46.15;;;24.23;;
81960;SDS011;71462;50.650;6.888;2023-08-21T06:05:37;35.40;;;20.40;;
81960;SDS011;71462;50.650;6.888;2023-08-21T06:07:39;38.08;;;22.77;;
81960;SDS011;71462;50.650;6.888;2023-08-21T06:09:42;47.90;;;23.83;;
81960;SDS011;71462;50.650;6.888;2023-08-21T06:11:45;40.20;;;21.42;;
81960;SDS011;71462;50.650;6.888;2023-08-21T06:13:47;34.25;;;20.63;;
81960;SDS011;71462;50.650;6.888;2023-08-21T06:15:50;40.83;;;20.17;;
81960;SDS011;71462;50.650;6.888;2023-08-21T06:17:53;33.97;;;18.25;;
81960;SDS011;71462;50.650;6.888;2023-08-21T06:19:57;34.55;;;17.58;;
81960;SDS011;71462;50.650;6.888;2023-08-21T06:22:00;35.90;;;18.70;;
81960;SDS011;71462;50.650;6.888;2023-08-21T06:24:04;30.92;;;16.92;;
81960;SDS011;71462;50.650;6.888;2023-08-21T06:26:07;27.95;;;15.23;;
81960;SDS011;71462;50.650;6.888;2023-08-21T06:28:09;35.72;;;16.33;;
81960;SDS011;71462;50.650;6.888;2023-08-21T06:30:13;27.00;;;14.27;;
81960;SDS011;71462;50.650;6.888;2023-08-21T06:32:15;28.35;;;16.13;;
81960;SDS011;71462;50.650;6.888;2023-08-21T06:34:20;32.33;;;15.70;;
81960;SDS011;71462;50.650;6.888;2023-08-21T06:36:24;40.38;;;18.05;;
81960;SDS011;71462;50.650;6.888;2023-08-21T06:38:27;38.47;;;17.25;;
81960;SDS011;71462;50.650;6.888;2023-08-21T06:40:29;33.65;;;14.65;;
81960;SDS011;71462;50.650;6.888;2023-08-21T06:42:32;33.30;;;17.58;;
81960;SDS011;71462;50.650;6.888;2023-08-21T06:44:34;36.80;;;16.95;;
81960;SDS011;71462;50.650;6.888;2023-08-21T06:46:37;30.27;;;16.70;;
81960;SDS011;71462;50.650;6.888;2023-08-21T06:48:40;36.38;;;16.95;;
81960;SDS011;71462;50.650;6.888;2023-08-21T06:50:43;30.58;;;17.13;;
81960;SDS011;71462;50.650;6.888;2023-08-21T06:52:47;33.80;;;14.63;;
81960;SDS011;71462;50.650;6.888;2023-08-21T06:54:49;33.60;;;15.60;;
81960;SDS011;71462;50.650;6.888;2023-08-21T06:56:52;40.03;;;16.75;;
81960;SDS011;71462;50.650;6.888;2023-08-21T06:58:54;29.05;;;13.27;;
81960;SDS011;71462;50.650;6.888;2023-08-21T07:00:57;33.35;;;15.75;;
81960;SDS011;71462;50.650;6.888;2023-08-21T07:03:00;31.73;;;15.23;;
81960;SDS011;71462;50.650;6.888;2023-08-21T07:05:04;34.22;;;14.85;;
81960;SDS011;71462;50.650;6.888;2023-08-21T07:07:08;39.83;;;17.85;;
81960;SDS011;71462;50.650;6.888;2023-08-21T07:09:12;39.05;;;19.25;;
81960;SDS011;71462;50.650;6.888;2023-08-21T07:11:14;40.25;;;17.50;;
81960;SDS011;71462;50.650;6.888;2023-08-21T07:13:18;37.50;;;19.08;;
81960;SDS011;71462;50.650;6.888;2023-08-21T07:15:21;43.72;;;21.10;;
81960;SDS011;71462;50.650;6.888;2023-08-21T07:17:24;43.05;;;18.77;;
81960;SDS011;71462;50.650;6.888;2023-08-21T07:19:27;34.40;;;19.48;;
81960;SDS011;71462;50.650;6.888;2023-08-21T07:21:30;44.42;;;19.00;;
81960;SDS011;71462;50.650;6.888;2023-08-21T07:23:34;39.65;;;20.02;;
81960;SDS011;71462;50.650;6.888;2023-08-21T07:25:38;41.10;;;19.50;;
81960;SDS011;71462;50.650;6.888;2023-08-21T07:27:41;36.50;;;18.85;;
81960;SDS011;71462;50.650;6.888;2023-08-21T07:29:45;39.97;;;17.95;;
81960;SDS011;71462;50.650;6.888;2023-08-21T07:31:48;33.72;;;16.92;;
81960;SDS011;71462;50.650;6.888;2023-08-21T07:33:51;39.75;;;19.15;;
81960;SDS011;71462;50.650;6.888;2023-08-21T07:35:57;42.83;;;17.17;;
81960;SDS011;71462;50.650;6.888;2023-08-21T07:38:00;37.25;;;17.00;;
81960;SDS011;71462;50.650;6.888;2023-08-21T07:40:04;32.10;;;17.15;;
81960;SDS011;71462;50.650;6.888;2023-08-21T07:42:09;42.95;;;17.55;;
81960;SDS011;71462;50.650;6.888;2023-08-21T07:44:13;36.60;;;17.50;;
81960;SDS011;71462;50.650;6.888;2023-08-21T07:46:16;29.75;;;15.02;;
81960;SDS011;71462;50.650;6.888;2023-08-21T07:48:20;33.80;;;15.13;;
81960;SDS011;71462;50.650;6.888;2023-08-21T07:50:22;40.30;;;17.67;;
81960;SDS011;71462;50.650;6.888;2023-08-21T07:52:25;33.55;;;15.70;;
81960;SDS011;71462;50.650;6.888;2023-08-21T07:54:28;32.67;;;15.57;;
81960;SDS011;71462;50.650;6.888;2023-08-21T07:56:32;34.15;;;14.55;;
81960;SDS011;71462;50.650;6.888;2023-08-21T07:58:38;41.78;;;16.98;;
81960;SDS011;71462;50.650;6.888;2023-08-21T08:00:41;34.50;;;15.25;;
81960;SDS011;71462;50.650;6.888;2023-08-21T08:02:44;34.40;;;16.33;;
81960;SDS011;71462;50.650;6.888;2023-08-21T08:04:47;36.00;;;15.20;;
81960;SDS011;71462;50.650;6.888;2023-08-21T08:06:50;33.58;;;15.18;;
81960;SDS011;71462;50.650;6.888;2023-08-21T08:08:52;36.45;;;15.60;;
81960;SDS011;71462;50.650;6.888;2023-08-21T08:10:55;42.85;;;17.08;;
81960;SDS011;71462;50.650;6.888;2023-08-21T08:12:57;33.97;;;16.02;;
81960;SDS011;71462;50.650;6.888;2023-08-21T08:15:02;41.47;;;16.85;;
81960;SDS011;71462;50.650;6.888;2023-08-21T08:17:05;33.45;;;15.32;;
81960;SDS011;71462;50.650;6.888;2023-08-21T08:19:07;33.13;;;17.05;;
81960;SDS011;71462;50.650;6.888;2023-08-21T08:21:10;34.00;;;15.68;;
81960;SDS011;71462;50.650;6.888;2023-08-21T08:23:13;31.95;;;17.60;;
81960;SDS011;71462;50.650;6.888;2023-08-21T08:25:15;29.10;;;15.73;;
81960;SDS011;71462;50.650;6.888;2023-08-21T08:27:19;32.42;;;17.05;;
81960;SDS011;71462;50.650;6.888;2023-08-21T08:29:22;25.42;;;14.90;;
81960;SDS011;71462;50.650;6.888;2023-08-21T08:31:26;32.47;;;15.40;;
81960;SDS011;71462;50.650;6.888;2023-08-21T08:33:29;31.77;;;16.63;;
81960;SDS011;71462;50.650;6.888;2023-08-21T08:35:32;29.58;;;17.45;;
81960;SDS011;71462;50.650;6.888;2023-08-21T08:37:34;32.38;;;16.50;;
81960;SDS011;71462;50.650;6.888;2023-08-21T08:39:37;32.30;;;16.52;;
81960;SDS011;71462;50.650;6.888;2023-08-21T08:41:43;31.73;;;14.45;;
81960;SDS011;71462;50.650;6.888;2023-08-21T08:43:49;28.85;;;14.82;;
81960;SDS011;71462;50.650;6.888;2023-08-21T08:45:53;31.60;;;15.73;;
81960;SDS011;71462;50.650;6.888;2023-08-21T08:48:00;31.48;;;14.52;;
81960;SDS011;71462;50.650;6.888;2023-08-21T08:50:04;27.65;;;14.48;;
81960;SDS011;71462;50.650;6.888;2023-08-21T08:52:08;31.67;;;15.35;;
81960;SDS011;71462;50.650;6.888;2023-08-21T08:54:13;31.20;;;16.25;;
81960;SDS011;71462;50.650;6.888;2023-08-21T08:56:18;34.20;;;15.63;;
81960;SDS011;71462;50.650;6.888;2023-08-21T08:58:21;32.30;;;15.55;;
81960;SDS011;71462;50.650;6.888;2023-08-21T09:00:24;28.13;;;15.75;;
81960;SDS011;71462;50.650;6.888;2023-08-21T09:02:28;38.45;;;18.55;;
81960;SDS011;71462;50.650;6.888;2023-08-21T09:04:32;27.58;;;15.05;;
81960;SDS011;71462;50.650;6.888;2023-08-21T09:06:35;34.03;;;13.73;;
81960;SDS011;71462;50.650;6.888;2023-08-21T09:08:39;32.63;;;16.48;;
81960;SDS011;71462;50.650;6.888;2023-08-21T09:10:55;30.45;;;15.20;;
81960;SDS011;71462;50.650;6.888;2023-08-21T09:12:57;32.60;;;14.93;;
81960;SDS011;71462;50.650;6.888;2023-08-21T09:15:05;37.38;;;17.40;;
81960;SDS011;71462;50.650;6.888;2023-08-21T09:17:09;32.53;;;15.10;;
81960;SDS011;71462;50.650;6.888;2023-08-21T09:19:12;31.08;;;14.05;;
81960;SDS011;71462;50.650;6.888;2023-08-21T09:21:26;26.65;;;14.15;;
81960;SDS011;71462;50.650;6.888;2023-08-21T09:23:33;28.95;;;14.18;;
81960;SDS011;71462;50.650;6.888;2023-08-21T09:25:37;22.65;;;11.75;;
81960;SDS011;71462;50.650;6.888;2023-08-21T09:27:41;30.58;;;13.35;;
81960;SDS011;71462;50.650;6.888;2023-08-21T09:29:44;28.27;;;13.73;;
81960;SDS011;71462;50.650;6.888;2023-08-21T09:31:48;29.27;;;15.63;;
81960;SDS011;71462;50.650;6.888;2023-08-21T09:33:55;29.63;;;13.75;;
81960;SDS011;71462;50.650;6.888;2023-08-21T09:35:59;28.23;;;13.88;;
81960;SDS011;71462;50.650;6.888;2023-08-21T09:38:03;30.63;;;14.70;;
81960;SDS011;71462;50.650;6.888;2023-08-21T09:40:06;25.08;;;12.77;;
81960;SDS011;71462;50.650;6.888;2023-08-21T09:42:12;34.15;;;13.10;;
81960;SDS011;71462;50.650;6.888;2023-08-21T09:44:18;26.73;;;13.18;;
81960;SDS011;71462;50.650;6.888;2023-08-21T09:46:23;24.17;;;12.65;;
81960;SDS011;71462;50.650;6.888;2023-08-21T09:48:27;24.05;;;12.43;;
81960;SDS011;71462;50.650;6.888;2023-08-21T09:50:30;28.80;;;12.52;;
81960;SDS011;71462;50.650;6.888;2023-08-21T09:52:33;25.15;;;12.18;;
81960;SDS011;71462;50.650;6.888;2023-08-21T09:54:39;25.52;;;11.70;;
81960;SDS011;71462;50.650;6.888;2023-08-21T09:56:44;26.52;;;11.88;;
81960;SDS011;71462;50.650;6.888;2023-08-21T09:58:48;22.00;;;11.32;;
81960;SDS011;71462;50.650;6.888;2023-08-21T10:00:55;25.85;;;12.70;;
81960;SDS011;71462;50.650;6.888;2023-08-21T10:03:00;31.33;;;12.35;;
81960;SDS011;71462;50.650;6.888;2023-08-21T10:05:04;25.80;;;11.75;;
81960;SDS011;71462;50.650;6.888;2023-08-21T10:07:07;26.55;;;12.82;;
81960;SDS011;71462;50.650;6.888;2023-08-21T10:09:12;22.65;;;10.75;;
81960;SDS011;71462;50.650;6.888;2023-08-21T10:11:17;25.20;;;12.50;;
81960;SDS011;71462;50.650;6.888;2023-08-21T10:13:23;20.35;;;11.13;;
81960;SDS011;71462;50.650;6.888;2023-08-21T10:15:25;28.25;;;10.95;;
81960;SDS011;71462;50.650;6.888;2023-08-21T10:17:30;25.48;;;12.40;;
81960;SDS011;71462;50.650;6.888;2023-08-21T10:19:33;23.08;;;11.02;;
81960;SDS011;71462;50.650;6.888;2023-08-21T10:21:37;23.83;;;11.48;;
81960;SDS011;71462;50.650;6.888;2023-08-21T10:23:41;36.30;;;11.82;;
81960;SDS011;71462;50.650;6.888;2023-08-21T10:25:47;25.73;;;11.95;;
81960;SDS011;71462;50.650;6.888;2023-08-21T10:27:51;19.25;;;9.48;;
81960;SDS011;71462;50.650;6.888;2023-08-21T10:29:56;29.73;;;10.88;;
81960;SDS011;71462;50.650;6.888;2023-08-21T10:31:59;26.55;;;10.52;;
81960;SDS011;71462;50.650;6.888;2023-08-21T10:34:02;26.80;;;11.98;;
81960;SDS011;71462;50.650;6.888;2023-08-21T10:36:06;26.90;;;11.93;;
81960;SDS011;71462;50.650;6.888;2023-08-21T10:38:12;26.98;;;12.13;;
81960;SDS011;71462;50.650;6.888;2023-08-21T10:40:21;33.42;;;11.80;;
81960;SDS011;71462;50.650;6.888;2023-08-21T10:44:52;23.15;;;10.23;;
81960;SDS011;71462;50.650;6.888;2023-08-21T10:47:02;29.45;;;12.73;;
81960;SDS011;71462;50.650;6.888;2023-08-21T10:49:14;22.27;;;11.13;;
81960;SDS011;71462;50.650;6.888;2023-08-21T10:51:17;18.25;;;11.57;;
81960;SDS011;71462;50.650;6.888;2023-08-21T10:53:22;27.70;;;11.60;;
81960;SDS011;71462;50.650;6.888;2023-08-21T10:55:26;23.00;;;9.77;;
81960;SDS011;71462;50.650;6.888;2023-08-21T10:57:29;26.25;;;11.45;;
81960;SDS011;71462;50.650;6.888;2023-08-21T10:59:33;28.92;;;12.13;;
81960;SDS011;71462;50.650;6.888;2023-08-21T11:01:44;37.55;;;12.38;;
81960;SDS011;71462;50.650;6.888;2023-08-21T11:03:49;22.80;;;11.10;;
81960;SDS011;71462;50.650;6.888;2023-08-21T11:06:01;29.08;;;11.57;;
81960;SDS011;71462;50.650;6.888;2023-08-21T11:08:05;25.92;;;10.77;;
81960;SDS011;71462;50.650;6.888;2023-08-21T11:10:09;32.42;;;12.40;;
81960;SDS011;71462;50.650;6.888;2023-08-21T11:12:14;27.15;;;11.95;;
81960;SDS011;71462;50.650;6.888;2023-08-21T11:14:17;23.77;;;10.55;;
81960;SDS011;71462;50.650;6.888;2023-08-21T11:16:20;30.90;;;11.45;;
81960;SDS011;71462;50.650;6.888;2023-08-21T11:18:29;20.02;;;10.05;;
81960;SDS011;71462;50.650;6.888;2023-08-21T11:20:32;18.92;;;10.02;;
81960;SDS011;71462;50.650;6.888;2023-08-21T11:22:36;20.98;;;11.13;;
81960;SDS011;71462;50.650;6.888;2023-08-21T11:24:40;22.30;;;10.77;;
81960;SDS011;71462;50.650;6.888;2023-08-21T11:26:43;24.25;;;11.13;;
81960;SDS011;71462;50.650;6.888;2023-08-21T11:28:47;26.92;;;11.30;;
81960;SDS011;71462;50.650;6.888;2023-08-21T11:30:50;29.75;;;11.77;;
81960;SDS011;71462;50.650;6.888;2023-08-21T11:33:04;28.83;;;12.20;;
81960;SDS011;71462;50.650;6.888;2023-08-21T11:35:09;28.58;;;11.85;;
81960;SDS011;71462;50.650;6.888;2023-08-21T11:37:11;23.00;;;11.52;;
81960;SDS011;71462;50.650;6.888;2023-08-21T11:39:13;23.38;;;10.48;;
81960;SDS011;71462;50.650;6.888;2023-08-21T11:41:16;22.98;;;11.15;;
81960;SDS011;71462;50.650;6.888;2023-08-21T11:43:18;27.38;;;11.20;;
81960;SDS011;71462;50.650;6.888;2023-08-21T11:45:20;25.27;;;10.90;;
81960;SDS011;71462;50.650;6.888;2023-08-21T11:47:23;24.30;;;11.15;;
81960;SDS011;71462;50.650;6.888;2023-08-21T11:49:32;21.60;;;10.13;;
81960;SDS011;71462;50.650;6.888;2023-08-21T11:51:39;16.77;;;9.95;;
81960;SDS011;71462;50.650;6.888;2023-08-21T11:53:41;19.98;;;10.48;;
81960;SDS011;71462;50.650;6.888;2023-08-21T11:55:46;24.77;;;11.50;;
81960;SDS011;71462;50.650;6.888;2023-08-21T11:57:49;18.27;;;10.32;;
81960;SDS011;71462;50.650;6.888;2023-08-21T11:59:56;27.70;;;11.63;;
81960;SDS011;71462;50.650;6.888;2023-08-21T12:01:58;25.45;;;10.63;;
81960;SDS011;71462;50.650;6.888;2023-08-21T12:04:13;22.30;;;10.43;;
81960;SDS011;71462;50.650;6.888;2023-08-21T12:06:16;20.80;;;10.88;;